sensor_id;sensor_type;location;lat;lon;timestamp;temperature;humidity
15656;DHT22;7928;43.614;1.456;2023-04-02T00:00:16;8.30;99.90
15656;DHT22;7928;43.614;1.456;2023-04-02T00:02:46;7.80;99.90
15656;DHT22;7928;43.614;1.456;2023-04-02T00:05:44;7.80;99.90
15656;DHT22;7928;43.614;1.456;2023-04-02T00:08:28;7.40;99.90
15656;DHT22;7928;43.614;1.456;2023-04-02T00:10:58;7.00;99.90
15656;DHT22;7928;43.614;1.456;2023-04-02T00:13:33;7.90;99.90
15656;DHT22;7928;43.614;1.456;2023-04-02T00:16:02;7.10;99.90
15656;DHT22;7928;43.614;1.456;2023-04-02T00:18:31;7.50;99.90
15656;DHT22;7928;43.614;1.456;2023-04-02T00:21:06;8.10;99.90
15656;DHT22;7928;43.614;1.456;2023-04-02T00:23:35;8.10;99.90
15656;DHT22;7928;43.614;1.456;2023-04-02T00:26:22;7.60;99.90
15656;DHT22;7928;43.614;1.456;2023-04-02T00:28:50;7.90;99.90
15656;DHT22;7928;43.614;1.456;2023-04-02T00:31:18;7.90;99.90
15656;DHT22;7928;43.614;1.456;2023-04-02T00:33:46;7.60;99.90
15656;DHT22;7928;43.614;1.456;2023-04-02T00:36:14;11.50;99.90
15656;DHT22;7928;43.614;1.456;2023-04-02T00:38:41;8.30;99.90
15656;DHT22;7928;43.614;1.456;2023-04-02T00:41:15;8.20;99.90
15656;DHT22;7928;43.614;1.456;2023-04-02T00:43:45;7.80;99.90
15656;DHT22;7928;43.614;1.456;2023-04-02T00:46:18;8.10;99.90
15656;DHT22;7928;43.614;1.456;2023-04-02T00:48:52;8.10;99.90
15656;DHT22;7928;43.614;1.456;2023-04-02T00:51:23;7.80;99.90
15656;DHT22;7928;43.614;1.456;2023-04-02T00:53:53;8.10;99.90
15656;DHT22;7928;43.614;1.456;2023-04-02T00:56:26;8.30;99.90
15656;DHT22;7928;43.614;1.456;2023-04-02T00:58:55;8.40;99.90
15656;DHT22;7928;43.614;1.456;2023-04-02T01:01:24;8.20;99.90
15656;DHT22;7928;43.614;1.456;2023-04-02T01:03:54;7.40;99.90
15656;DHT22;7928;43.614;1.456;2023-04-02T01:06:25;8.10;99.90
15656;DHT22;7928;43.614;1.456;2023-04-02T01:09:06;8.10;99.90
15656;DHT22;7928;43.614;1.456;2023-04-02T01:12:02;7.00;99.90
15656;DHT22;7928;43.614;1.456;2023-04-02T01:14:49;8.30;99.90
15656;DHT22;7928;43.614;1.456;2023-04-02T01:17:34;7.60;99.90
15656;DHT22;7928;43.614;1.456;2023-04-02T01:20:27;7.50;99.90
15656;DHT22;7928;43.614;1.456;2023-04-02T01:23:02;7.90;99.90
15656;DHT22;7928;43.614;1.456;2023-04-02T01:25:38;8.50;99.90
15656;DHT22;7928;43.614;1.456;2023-04-02T01:28:12;8.40;99.90
15656;DHT22;7928;43.614;1.456;2023-04-02T01:30:50;7.70;99.90
15656;DHT22;7928;43.614;1.456;2023-04-02T01:33:20;8.20;99.90
15656;DHT22;7928;43.614;1.456;2023-04-02T01:35:56;8.30;99.90
15656;DHT22;7928;43.614;1.456;2023-04-02T01:38:29;8.30;99.90
15656;DHT22;7928;43.614;1.456;2023-04-02T01:41:03;8.00;99.90
15656;DHT22;7928;43.614;1.456;2023-04-02T01:43:37;8.10;99.90
15656;DHT22;7928;43.614;1.456;2023-04-02T01:46:26;8.00;99.90
15656;DHT22;7928;43.614;1.456;2023-04-02T01:48:54;8.60;99.90
15656;DHT22;7928;43.614;1.456;2023-04-02T01:51:25;7.70;99.90
15656;DHT22;7928;43.614;1.456;2023-04-02T01:53:53;8.40;99.90
15656;DHT22;7928;43.614;1.456;2023-04-02T01:56:20;8.40;99.90
15656;DHT22;7928;43.614;1.456;2023-04-02T01:58:48;8.40;99.90
15656;DHT22;7928;43.614;1.456;2023-04-02T02:01:17;8.20;99.90
15656;DHT22;7928;43.614;1.456;2023-04-02T02:03:46;8.40;99.90
15656;DHT22;7928;43.614;1.456;2023-04-02T02:06:16;8.20;99.90
15656;DHT22;7928;43.614;1.456;2023-04-02T02:08:47;8.00;99.90
15656;DHT22;7928;43.614;1.456;2023-04-02T02:11:18;8.00;99.90
15656;DHT22;7928;43.614;1.456;2023-04-02T02:13:46;8.00;99.90
15656;DHT22;7928;43.614;1.456;2023-04-02T02:16:15;8.00;99.90
15656;DHT22;7928;43.614;1.456;2023-04-02T02:18:47;8.40;99.90
15656;DHT22;7928;43.614;1.456;2023-04-02T02:21:22;8.30;99.90
15656;DHT22;7928;43.614;1.456;2023-04-02T02:23:52;7.60;99.90
15656;DHT22;7928;43.614;1.456;2023-04-02T02:26:20;8.30;99.90
15656;DHT22;7928;43.614;1.456;2023-04-02T02:28:49;7.10;99.90
15656;DHT22;7928;43.614;1.456;2023-04-02T02:31:21;8.20;99.90
15656;DHT22;7928;43.614;1.456;2023-04-02T02:33:57;7.80;99.90
15656;DHT22;7928;43.614;1.456;2023-04-02T02:36:31;8.20;99.90
15656;DHT22;7928;43.614;1.456;2023-04-02T02:39:02;8.20;99.90
15656;DHT22;7928;43.614;1.456;2023-04-02T02:41:36;7.70;99.90
15656;DHT22;7928;43.614;1.456;2023-04-02T02:44:11;8.30;99.90
15656;DHT22;7928;43.614;1.456;2023-04-02T02:46:43;7.50;99.90
15656;DHT22;7928;43.614;1.456;2023-04-02T02:49:15;7.80;99.90
15656;DHT22;7928;43.614;1.456;2023-04-02T02:51:47;8.50;99.90
15656;DHT22;7928;43.614;1.456;2023-04-02T02:54:17;8.50;99.90
15656;DHT22;7928;43.614;1.456;2023-04-02T02:56:48;7.60;99.90
15656;DHT22;7928;43.614;1.456;2023-04-02T02:59:18;7.90;99.90
15656;DHT22;7928;43.614;1.456;2023-04-02T03:01:47;7.80;99.90
15656;DHT22;7928;43.614;1.456;2023-04-02T03:04:20;8.00;99.90
15656;DHT22;7928;43.614;1.456;2023-04-02T03:06:49;8.60;99.90
15656;DHT22;7928;43.614;1.456;2023-04-02T03:09:30;8.40;99.90
15656;DHT22;7928;43.614;1.456;2023-04-02T03:12:04;8.00;99.90
15656;DHT22;7928;43.614;1.456;2023-04-02T03:14:35;8.20;99.90
15656;DHT22;7928;43.614;1.456;2023-04-02T03:17:09;7.70;99.90
15656;DHT22;7928;43.614;1.456;2023-04-02T03:19:43;8.50;99.90
15656;DHT22;7928;43.614;1.456;2023-04-02T03:22:15;8.00;99.90
15656;DHT22;7928;43.614;1.456;2023-04-02T03:24:50;8.30;99.90
15656;DHT22;7928;43.614;1.456;2023-04-02T03:27:22;8.30;99.90
15656;DHT22;7928;43.614;1.456;2023-04-02T03:30:00;8.80;99.90
15656;DHT22;7928;43.614;1.456;2023-04-02T03:32:31;8.20;99.90
15656;DHT22;7928;43.614;1.456;2023-04-02T03:35:05;8.30;99.90
15656;DHT22;7928;43.614;1.456;2023-04-02T03:37:40;8.20;99.90
15656;DHT22;7928;43.614;1.456;2023-04-02T03:40:13;8.20;99.90
15656;DHT22;7928;43.614;1.456;2023-04-02T03:42:44;8.60;99.90
15656;DHT22;7928;43.614;1.456;2023-04-02T03:45:17;8.40;99.90
15656;DHT22;7928;43.614;1.456;2023-04-02T03:47:49;8.20;99.90
15656;DHT22;7928;43.614;1.456;2023-04-02T03:50:24;7.90;99.90
15656;DHT22;7928;43.614;1.456;2023-04-02T03:52:52;8.20;99.90
15656;DHT22;7928;43.614;1.456;2023-04-02T03:55:21;8.30;99.90
15656;DHT22;7928;43.614;1.456;2023-04-02T03:57:54;8.10;99.90
15656;DHT22;7928;43.614;1.456;2023-04-02T04:00:29;8.10;99.90
15656;DHT22;7928;43.614;1.456;2023-04-02T04:03:03;8.00;99.90
15656;DHT22;7928;43.614;1.456;2023-04-02T04:05:36;8.00;99.90
15656;DHT22;7928;43.614;1.456;2023-04-02T04:08:06;8.00;99.90
15656;DHT22;7928;43.614;1.456;2023-04-02T04:10:34;8.00;99.90
15656;DHT22;7928;43.614;1.456;2023-04-02T04:13:05;8.00;99.90
15656;DHT22;7928;43.614;1.456;2023-04-02T04:15:35;7.90;99.90
15656;DHT22;7928;43.614;1.456;2023-04-02T04:18:10;7.90;99.90
15656;DHT22;7928;43.614;1.456;2023-04-02T04:20:50;8.10;99.90
15656;DHT22;7928;43.614;1.456;2023-04-02T04:23:25;8.30;99.90
15656;DHT22;7928;43.614;1.456;2023-04-02T04:25:59;8.00;99.90
15656;DHT22;7928;43.614;1.456;2023-04-02T04:28:33;8.20;99.90
15656;DHT22;7928;43.614;1.456;2023-04-02T04:31:12;7.50;99.90
15656;DHT22;7928;43.614;1.456;2023-04-02T04:33:45;8.60;99.90
15656;DHT22;7928;43.614;1.456;2023-04-02T04:36:21;8.30;99.90
15656;DHT22;7928;43.614;1.456;2023-04-02T04:38:54;8.60;99.90
15656;DHT22;7928;43.614;1.456;2023-04-02T04:41:27;7.80;99.90
15656;DHT22;7928;43.614;1.456;2023-04-02T04:43:59;8.40;99.90
15656;DHT22;7928;43.614;1.456;2023-04-02T04:46:35;8.90;99.90
15656;DHT22;7928;43.614;1.456;2023-04-02T04:49:08;8.50;99.90
15656;DHT22;7928;43.614;1.456;2023-04-02T04:51:41;8.80;99.90
15656;DHT22;7928;43.614;1.456;2023-04-02T04:54:12;8.40;99.90
15656;DHT22;7928;43.614;1.456;2023-04-02T04:56:44;8.20;99.90
15656;DHT22;7928;43.614;1.456;2023-04-02T04:59:16;8.80;99.90
15656;DHT22;7928;43.614;1.456;2023-04-02T05:01:49;8.90;99.90
15656;DHT22;7928;43.614;1.456;2023-04-02T05:04:21;8.50;99.90
15656;DHT22;7928;43.614;1.456;2023-04-02T05:06:54;8.40;99.90
15656;DHT22;7928;43.614;1.456;2023-04-02T05:09:26;8.40;99.90
15656;DHT22;7928;43.614;1.456;2023-04-02T05:12:01;8.40;99.90
15656;DHT22;7928;43.614;1.456;2023-04-02T05:14:34;8.30;99.90
15656;DHT22;7928;43.614;1.456;2023-04-02T05:17:06;7.90;99.90
15656;DHT22;7928;43.614;1.456;2023-04-02T05:19:38;8.50;99.90
15656;DHT22;7928;43.614;1.456;2023-04-02T05:22:19;8.20;99.90
15656;DHT22;7928;43.614;1.456;2023-04-02T05:24:54;8.30;99.90
15656;DHT22;7928;43.614;1.456;2023-04-02T05:27:35;8.50;99.90
15656;DHT22;7928;43.614;1.456;2023-04-02T05:30:11;8.30;99.90
15656;DHT22;7928;43.614;1.456;2023-04-02T05:32:42;7.70;99.90
15656;DHT22;7928;43.614;1.456;2023-04-02T05:35:15;8.50;99.90
15656;DHT22;7928;43.614;1.456;2023-04-02T05:37:45;8.20;99.90
15656;DHT22;7928;43.614;1.456;2023-04-02T05:40:18;7.70;99.90
15656;DHT22;7928;43.614;1.456;2023-04-02T05:42:48;8.30;99.90
15656;DHT22;7928;43.614;1.456;2023-04-02T05:45:22;8.30;99.90
15656;DHT22;7928;43.614;1.456;2023-04-02T05:47:53;8.30;99.90
15656;DHT22;7928;43.614;1.456;2023-04-02T05:50:27;8.80;99.90
15656;DHT22;7928;43.614;1.456;2023-04-02T05:53:03;8.50;99.90
15656;DHT22;7928;43.614;1.456;2023-04-02T05:55:42;8.50;99.90
15656;DHT22;7928;43.614;1.456;2023-04-02T05:58:19;8.60;99.90
15656;DHT22;7928;43.614;1.456;2023-04-02T06:03:45;8.60;99.90
15656;DHT22;7928;43.614;1.456;2023-04-02T06:06:18;8.90;99.90
15656;DHT22;7928;43.614;1.456;2023-04-02T06:08:56;8.70;99.90
15656;DHT22;7928;43.614;1.456;2023-04-02T06:11:27;8.80;99.90
15656;DHT22;7928;43.614;1.456;2023-04-02T06:13:57;8.80;99.90
15656;DHT22;7928;43.614;1.456;2023-04-02T06:16:26;8.80;99.90
15656;DHT22;7928;43.614;1.456;2023-04-02T06:18:54;8.60;99.90
15656;DHT22;7928;43.614;1.456;2023-04-02T06:21:22;9.10;99.90
15656;DHT22;7928;43.614;1.456;2023-04-02T06:23:54;8.60;99.90
15656;DHT22;7928;43.614;1.456;2023-04-02T06:26:25;9.30;99.90
15656;DHT22;7928;43.614;1.456;2023-04-02T06:28:58;9.10;99.90
15656;DHT22;7928;43.614;1.456;2023-04-02T06:31:32;9.20;99.90
15656;DHT22;7928;43.614;1.456;2023-04-02T06:34:01;9.10;99.90
15656;DHT22;7928;43.614;1.456;2023-04-02T06:36:28;9.00;99.90
15656;DHT22;7928;43.614;1.456;2023-04-02T06:39:02;9.20;99.90
15656;DHT22;7928;43.614;1.456;2023-04-02T06:41:31;9.20;99.90
15656;DHT22;7928;43.614;1.456;2023-04-02T06:44:02;9.50;99.90
15656;DHT22;7928;43.614;1.456;2023-04-02T06:46:33;9.30;99.90
15656;DHT22;7928;43.614;1.456;2023-04-02T06:49:06;9.30;99.90
15656;DHT22;7928;43.614;1.456;2023-04-02T06:51:37;9.60;99.90
15656;DHT22;7928;43.614;1.456;2023-04-02T06:54:12;9.50;99.90
15656;DHT22;7928;43.614;1.456;2023-04-02T06:56:41;9.90;99.90
15656;DHT22;7928;43.614;1.456;2023-04-02T06:59:09;10.20;99.90
15656;DHT22;7928;43.614;1.456;2023-04-02T07:01:40;10.30;99.90
15656;DHT22;7928;43.614;1.456;2023-04-02T07:04:09;10.50;99.90
15656;DHT22;7928;43.614;1.456;2023-04-02T07:06:36;10.00;99.90
15656;DHT22;7928;43.614;1.456;2023-04-02T07:09:04;10.20;99.90
15656;DHT22;7928;43.614;1.456;2023-04-02T07:11:33;10.40;99.90
15656;DHT22;7928;43.614;1.456;2023-04-02T07:14:00;10.20;99.90
15656;DHT22;7928;43.614;1.456;2023-04-02T07:16:29;10.20;99.90
15656;DHT22;7928;43.614;1.456;2023-04-02T07:18:57;10.10;99.90
15656;DHT22;7928;43.614;1.456;2023-04-02T07:21:24;10.30;99.90
15656;DHT22;7928;43.614;1.456;2023-04-02T07:23:52;10.80;99.90
15656;DHT22;7928;43.614;1.456;2023-04-02T07:26:20;10.30;99.90
15656;DHT22;7928;43.614;1.456;2023-04-02T07:28:49;10.00;99.90
15656;DHT22;7928;43.614;1.456;2023-04-02T07:31:18;9.60;99.90
15656;DHT22;7928;43.614;1.456;2023-04-02T07:33:45;10.50;99.90
15656;DHT22;7928;43.614;1.456;2023-04-02T07:36:14;10.20;99.90
15656;DHT22;7928;43.614;1.456;2023-04-02T07:38:42;10.30;99.90
15656;DHT22;7928;43.614;1.456;2023-04-02T07:41:09;10.20;99.90
15656;DHT22;7928;43.614;1.456;2023-04-02T07:43:36;10.50;99.90
15656;DHT22;7928;43.614;1.456;2023-04-02T07:46:05;10.60;99.90
15656;DHT22;7928;43.614;1.456;2023-04-02T07:48:32;10.90;99.90
15656;DHT22;7928;43.614;1.456;2023-04-02T07:51:00;10.30;99.90
15656;DHT22;7928;43.614;1.456;2023-04-02T07:53:30;10.30;99.90
15656;DHT22;7928;43.614;1.456;2023-04-02T07:55:57;10.70;99.90
15656;DHT22;7928;43.614;1.456;2023-04-02T07:58:24;10.70;99.90
15656;DHT22;7928;43.614;1.456;2023-04-02T08:00:51;10.60;99.90
15656;DHT22;7928;43.614;1.456;2023-04-02T08:03:20;10.60;99.90
15656;DHT22;7928;43.614;1.456;2023-04-02T08:05:51;10.70;99.90
15656;DHT22;7928;43.614;1.456;2023-04-02T08:08:18;10.70;99.90
15656;DHT22;7928;43.614;1.456;2023-04-02T08:10:46;10.70;99.90
15656;DHT22;7928;43.614;1.456;2023-04-02T08:13:13;10.70;99.90
15656;DHT22;7928;43.614;1.456;2023-04-02T08:15:40;10.80;99.90
15656;DHT22;7928;43.614;1.456;2023-04-02T08:18:08;11.30;99.90
15656;DHT22;7928;43.614;1.456;2023-04-02T08:20:36;11.40;99.90
15656;DHT22;7928;43.614;1.456;2023-04-02T08:23:04;11.10;99.90
15656;DHT22;7928;43.614;1.456;2023-04-02T08:25:31;10.90;99.90
15656;DHT22;7928;43.614;1.456;2023-04-02T08:27:58;11.40;99.90
15656;DHT22;7928;43.614;1.456;2023-04-02T08:30:26;11.60;99.90
15656;DHT22;7928;43.614;1.456;2023-04-02T08:32:53;10.90;99.90
15656;DHT22;7928;43.614;1.456;2023-04-02T08:35:20;11.60;99.90
15656;DHT22;7928;43.614;1.456;2023-04-02T08:37:49;11.70;99.90
15656;DHT22;7928;43.614;1.456;2023-04-02T08:40:21;11.90;99.90
15656;DHT22;7928;43.614;1.456;2023-04-02T08:45:49;11.80;99.90
15656;DHT22;7928;43.614;1.456;2023-04-02T08:48:19;11.80;99.90
15656;DHT22;7928;43.614;1.456;2023-04-02T08:50:48;11.90;99.90
15656;DHT22;7928;43.614;1.456;2023-04-02T08:53:20;11.80;99.90
15656;DHT22;7928;43.614;1.456;2023-04-02T08:55:55;12.00;99.90
15656;DHT22;7928;43.614;1.456;2023-04-02T08:58:31;12.00;99.90
15656;DHT22;7928;43.614;1.456;2023-04-02T09:01:02;11.90;99.90
15656;DHT22;7928;43.614;1.456;2023-04-02T09:03:35;12.50;99.90
15656;DHT22;7928;43.614;1.456;2023-04-02T09:06:06;12.80;99.90
15656;DHT22;7928;43.614;1.456;2023-04-02T09:08:36;12.90;99.90
15656;DHT22;7928;43.614;1.456;2023-04-02T09:11:07;13.20;99.90
15656;DHT22;7928;43.614;1.456;2023-04-02T09:13:38;13.00;99.90
15656;DHT22;7928;43.614;1.456;2023-04-02T09:16:11;13.10;99.90
15656;DHT22;7928;43.614;1.456;2023-04-02T09:18:39;13.00;99.90
15656;DHT22;7928;43.614;1.456;2023-04-02T09:21:18;13.10;99.90
15656;DHT22;7928;43.614;1.456;2023-04-02T09:23:49;13.40;99.90
15656;DHT22;7928;43.614;1.456;2023-04-02T09:26:20;13.20;99.90
15656;DHT22;7928;43.614;1.456;2023-04-02T09:28:48;13.20;99.90
15656;DHT22;7928;43.614;1.456;2023-04-02T09:31:19;12.50;99.90
15656;DHT22;7928;43.614;1.456;2023-04-02T09:33:49;13.30;99.90
15656;DHT22;7928;43.614;1.456;2023-04-02T09:36:41;12.80;99.90
15656;DHT22;7928;43.614;1.456;2023-04-02T09:39:18;13.20;99.90
15656;DHT22;7928;43.614;1.456;2023-04-02T09:41:45;12.70;99.90
15656;DHT22;7928;43.614;1.456;2023-04-02T09:44:19;12.80;99.90
15656;DHT22;7928;43.614;1.456;2023-04-02T09:46:48;13.30;99.90
15656;DHT22;7928;43.614;1.456;2023-04-02T09:49:16;13.40;99.90
15656;DHT22;7928;43.614;1.456;2023-04-02T09:51:44;14.00;99.90
15656;DHT22;7928;43.614;1.456;2023-04-02T09:54:14;14.30;99.90
15656;DHT22;7928;43.614;1.456;2023-04-02T09:56:59;14.20;99.90
15656;DHT22;7928;43.614;1.456;2023-04-02T09:59:27;14.30;99.90
15656;DHT22;7928;43.614;1.456;2023-04-02T10:01:58;14.80;99.90
15656;DHT22;7928;43.614;1.456;2023-04-02T10:04:34;14.20;99.90
15656;DHT22;7928;43.614;1.456;2023-04-02T10:07:02;14.00;99.90
15656;DHT22;7928;43.614;1.456;2023-04-02T10:09:32;13.20;99.90
15656;DHT22;7928;43.614;1.456;2023-04-02T10:12:03;13.70;99.90
15656;DHT22;7928;43.614;1.456;2023-04-02T10:14:34;13.90;99.90
15656;DHT22;7928;43.614;1.456;2023-04-02T10:17:10;13.90;99.90
15656;DHT22;7928;43.614;1.456;2023-04-02T10:19:39;14.50;99.90
15656;DHT22;7928;43.614;1.456;2023-04-02T10:22:12;13.90;99.90
15656;DHT22;7928;43.614;1.456;2023-04-02T10:24:40;14.10;99.90
15656;DHT22;7928;43.614;1.456;2023-04-02T10:27:16;14.20;99.90
15656;DHT22;7928;43.614;1.456;2023-04-02T10:30:10;14.20;99.90
15656;DHT22;7928;43.614;1.456;2023-04-02T10:32:43;13.40;99.90
15656;DHT22;7928;43.614;1.456;2023-04-02T10:35:20;12.90;99.90
15656;DHT22;7928;43.614;1.456;2023-04-02T10:38:00;12.90;99.90
15656;DHT22;7928;43.614;1.456;2023-04-02T10:40:34;13.10;99.90
15656;DHT22;7928;43.614;1.456;2023-04-02T10:43:32;13.30;99.90
15656;DHT22;7928;43.614;1.456;2023-04-02T10:46:04;14.30;99.90
15656;DHT22;7928;43.614;1.456;2023-04-02T10:48:37;14.20;99.90
15656;DHT22;7928;43.614;1.456;2023-04-02T10:51:11;15.20;99.90
15656;DHT22;7928;43.614;1.456;2023-04-02T10:53:44;15.80;99.90
15656;DHT22;7928;43.614;1.456;2023-04-02T10:56:14;15.90;99.90
15656;DHT22;7928;43.614;1.456;2023-04-02T10:58:49;15.70;99.90
15656;DHT22;7928;43.614;1.456;2023-04-02T11:01:24;15.20;99.90
15656;DHT22;7928;43.614;1.456;2023-04-02T11:03:55;14.60;99.90
15656;DHT22;7928;43.614;1.456;2023-04-02T11:06:27;14.20;99.90
15656;DHT22;7928;43.614;1.456;2023-04-02T11:08:59;14.20;99.90
15656;DHT22;7928;43.614;1.456;2023-04-02T11:11:29;14.10;99.90
15656;DHT22;7928;43.614;1.456;2023-04-02T11:14:00;14.50;99.90
15656;DHT22;7928;43.614;1.456;2023-04-02T11:16:29;15.00;99.90
15656;DHT22;7928;43.614;1.456;2023-04-02T11:19:21;15.80;99.90
15656;DHT22;7928;43.614;1.456;2023-04-02T11:21:49;15.70;99.90
15656;DHT22;7928;43.614;1.456;2023-04-02T11:24:28;15.50;99.90
15656;DHT22;7928;43.614;1.456;2023-04-02T11:27:04;15.20;99.90
15656;DHT22;7928;43.614;1.456;2023-04-02T11:29:34;15.00;99.90
15656;DHT22;7928;43.614;1.456;2023-04-02T11:32:21;14.50;99.90
15656;DHT22;7928;43.614;1.456;2023-04-02T11:37:52;14.70;99.90
15656;DHT22;7928;43.614;1.456;2023-04-02T11:40:47;15.40;99.90
15656;DHT22;7928;43.614;1.456;2023-04-02T11:43:46;15.50;99.90
15656;DHT22;7928;43.614;1.456;2023-04-02T11:46:41;15.00;99.90
15656;DHT22;7928;43.614;1.456;2023-04-02T11:49:36;15.00;99.90
15656;DHT22;7928;43.614;1.456;2023-04-02T11:52:24;14.30;99.90
15656;DHT22;7928;43.614;1.456;2023-04-02T11:55:16;15.20;99.90
15656;DHT22;7928;43.614;1.456;2023-04-02T11:58:01;17.10;99.90
15656;DHT22;7928;43.614;1.456;2023-04-02T12:04:00;17.80;99.90
15656;DHT22;7928;43.614;1.456;2023-04-02T12:06:43;18.40;99.90
15656;DHT22;7928;43.614;1.456;2023-04-02T12:09:18;18.30;99.90
15656;DHT22;7928;43.614;1.456;2023-04-02T12:11:47;18.30;99.90
15656;DHT22;7928;43.614;1.456;2023-04-02T12:14:30;18.00;99.90
15656;DHT22;7928;43.614;1.456;2023-04-02T12:16:59;16.80;99.90
15656;DHT22;7928;43.614;1.456;2023-04-02T12:19:30;16.10;99.90
15656;DHT22;7928;43.614;1.456;2023-04-02T12:21:58;15.70;99.90
15656;DHT22;7928;43.614;1.456;2023-04-02T12:24:26;15.10;99.90
15656;DHT22;7928;43.614;1.456;2023-04-02T12:27:06;14.80;99.90
15656;DHT22;7928;43.614;1.456;2023-04-02T12:29:40;14.70;99.90
15656;DHT22;7928;43.614;1.456;2023-04-02T12:32:18;14.90;99.90
15656;DHT22;7928;43.614;1.456;2023-04-02T12:34:48;14.90;99.90
15656;DHT22;7928;43.614;1.456;2023-04-02T12:37:20;15.00;99.90
15656;DHT22;7928;43.614;1.456;2023-04-02T12:39:56;15.30;99.90
15656;DHT22;7928;43.614;1.456;2023-04-02T12:42:28;16.40;99.90
15656;DHT22;7928;43.614;1.456;2023-04-02T12:44:55;16.60;99.90
15656;DHT22;7928;43.614;1.456;2023-04-02T12:47:22;17.10;99.90
15656;DHT22;7928;43.614;1.456;2023-04-02T12:49:51;17.40;99.90
15656;DHT22;7928;43.614;1.456;2023-04-02T12:52:21;17.10;99.90
15656;DHT22;7928;43.614;1.456;2023-04-02T12:54:50;16.50;99.90
15656;DHT22;7928;43.614;1.456;2023-04-02T12:57:38;16.70;99.90
15656;DHT22;7928;43.614;1.456;2023-04-02T13:03:28;17.00;99.90
15656;DHT22;7928;43.614;1.456;2023-04-02T13:05:56;18.20;99.90
15656;DHT22;7928;43.614;1.456;2023-04-02T13:08:25;18.60;99.90
15656;DHT22;7928;43.614;1.456;2023-04-02T13:10:55;17.70;99.90
15656;DHT22;7928;43.614;1.456;2023-04-02T13:13:27;17.80;99.90
15656;DHT22;7928;43.614;1.456;2023-04-02T13:16:04;16.80;99.90
15656;DHT22;7928;43.614;1.456;2023-04-02T13:18:33;16.50;99.90
15656;DHT22;7928;43.614;1.456;2023-04-02T13:21:03;18.00;99.90
15656;DHT22;7928;43.614;1.456;2023-04-02T13:23:33;18.70;99.90
15656;DHT22;7928;43.614;1.456;2023-04-02T13:28:55;19.40;99.90
15656;DHT22;7928;43.614;1.456;2023-04-02T13:31:22;19.50;99.90
15656;DHT22;7928;43.614;1.456;2023-04-02T13:33:50;20.70;99.90
15656;DHT22;7928;43.614;1.456;2023-04-02T13:36:18;20.80;99.90
15656;DHT22;7928;43.614;1.456;2023-04-02T13:38:45;21.30;99.90
15656;DHT22;7928;43.614;1.456;2023-04-02T13:41:18;21.40;99.90
15656;DHT22;7928;43.614;1.456;2023-04-02T13:43:47;21.90;99.90
15656;DHT22;7928;43.614;1.456;2023-04-02T13:46:18;21.30;99.90
15656;DHT22;7928;43.614;1.456;2023-04-02T13:48:46;19.70;99.90
15656;DHT22;7928;43.614;1.456;2023-04-02T13:51:15;18.30;99.90
15656;DHT22;7928;43.614;1.456;2023-04-02T13:53:45;17.50;99.90
15656;DHT22;7928;43.614;1.456;2023-04-02T13:56:13;16.70;99.90
15656;DHT22;7928;43.614;1.456;2023-04-02T13:58:40;15.90;99.90
15656;DHT22;7928;43.614;1.456;2023-04-02T14:01:07;15.50;99.90
15656;DHT22;7928;43.614;1.456;2023-04-02T14:03:34;15.50;99.90
15656;DHT22;7928;43.614;1.456;2023-04-02T14:06:04;16.50;99.90
15656;DHT22;7928;43.614;1.456;2023-04-02T14:08:46;16.90;99.90
15656;DHT22;7928;43.614;1.456;2023-04-02T14:11:24;16.40;99.90
15656;DHT22;7928;43.614;1.456;2023-04-02T14:17:00;15.70;99.90
15656;DHT22;7928;43.614;1.456;2023-04-02T14:19:42;15.60;99.90
15656;DHT22;7928;43.614;1.456;2023-04-02T14:22:19;15.30;99.90
15656;DHT22;7928;43.614;1.456;2023-04-02T14:24:55;15.90;99.90
15656;DHT22;7928;43.614;1.456;2023-04-02T14:27:34;17.10;99.90
15656;DHT22;7928;43.614;1.456;2023-04-02T14:30:10;18.50;99.90
15656;DHT22;7928;43.614;1.456;2023-04-02T14:32:47;20.30;99.90
15656;DHT22;7928;43.614;1.456;2023-04-02T14:35:23;21.40;99.90
15656;DHT22;7928;43.614;1.456;2023-04-02T14:38:05;21.80;99.90
15656;DHT22;7928;43.614;1.456;2023-04-02T14:40:38;21.90;99.90
15656;DHT22;7928;43.614;1.456;2023-04-02T14:43:14;20.10;99.90
15656;DHT22;7928;43.614;1.456;2023-04-02T14:45:50;19.40;99.90
15656;DHT22;7928;43.614;1.456;2023-04-02T14:48:29;19.50;99.90
15656;DHT22;7928;43.614;1.456;2023-04-02T14:51:01;20.00;99.90
15656;DHT22;7928;43.614;1.456;2023-04-02T14:53:35;20.20;99.90
15656;DHT22;7928;43.614;1.456;2023-04-02T14:56:09;21.00;99.90
15656;DHT22;7928;43.614;1.456;2023-04-02T14:58:41;21.60;99.90
15656;DHT22;7928;43.614;1.456;2023-04-02T15:01:15;20.60;99.90
15656;DHT22;7928;43.614;1.456;2023-04-02T15:03:47;21.10;99.90
15656;DHT22;7928;43.614;1.456;2023-04-02T15:06:18;22.20;99.90
15656;DHT22;7928;43.614;1.456;2023-04-02T15:08:50;22.10;99.90
15656;DHT22;7928;43.614;1.456;2023-04-02T15:11:24;22.30;99.90
15656;DHT22;7928;43.614;1.456;2023-04-02T15:13:56;21.70;99.90
15656;DHT22;7928;43.614;1.456;2023-04-02T15:16:26;21.50;99.90
15656;DHT22;7928;43.614;1.456;2023-04-02T15:18:55;21.40;99.90
15656;DHT22;7928;43.614;1.456;2023-04-02T15:24:17;18.90;99.90
15656;DHT22;7928;43.614;1.456;2023-04-02T15:26:55;17.90;99.90
15656;DHT22;7928;43.614;1.456;2023-04-02T15:29:39;17.00;99.90
15656;DHT22;7928;43.614;1.456;2023-04-02T15:32:21;17.00;99.90
15656;DHT22;7928;43.614;1.456;2023-04-02T15:34:52;16.40;99.90
15656;DHT22;7928;43.614;1.456;2023-04-02T15:37:27;16.20;99.90
15656;DHT22;7928;43.614;1.456;2023-04-02T15:40:19;16.30;99.90
15656;DHT22;7928;43.614;1.456;2023-04-02T15:42:55;16.20;99.90
15656;DHT22;7928;43.614;1.456;2023-04-02T15:45:28;15.70;99.90
15656;DHT22;7928;43.614;1.456;2023-04-02T15:48:13;15.80;99.90
15656;DHT22;7928;43.614;1.456;2023-04-02T15:50:50;15.20;99.90
15656;DHT22;7928;43.614;1.456;2023-04-02T15:53:31;15.20;99.90
15656;DHT22;7928;43.614;1.456;2023-04-02T15:56:07;15.00;99.90
15656;DHT22;7928;43.614;1.456;2023-04-02T15:58:51;14.50;99.90
15656;DHT22;7928;43.614;1.456;2023-04-02T16:01:25;14.70;99.90
15656;DHT22;7928;43.614;1.456;2023-04-02T16:04:15;14.30;99.90
15656;DHT22;7928;43.614;1.456;2023-04-02T16:06:59;14.40;99.90
15656;DHT22;7928;43.614;1.456;2023-04-02T16:09:28;13.90;99.90
15656;DHT22;7928;43.614;1.456;2023-04-02T16:12:00;13.80;99.90
15656;DHT22;7928;43.614;1.456;2023-04-02T16:14:36;13.50;99.90
15656;DHT22;7928;43.614;1.456;2023-04-02T16:17:05;13.70;99.90
15656;DHT22;7928;43.614;1.456;2023-04-02T16:19:40;13.80;99.90
15656;DHT22;7928;43.614;1.456;2023-04-02T16:22:13;14.40;99.90
15656;DHT22;7928;43.614;1.456;2023-04-02T16:24:43;16.10;99.90
15656;DHT22;7928;43.614;1.456;2023-04-02T16:27:19;16.40;99.90
15656;DHT22;7928;43.614;1.456;2023-04-02T16:30:25;16.40;99.90
15656;DHT22;7928;43.614;1.456;2023-04-02T16:33:15;16.70;99.90
15656;DHT22;7928;43.614;1.456;2023-04-02T16:35:54;18.20;99.90
15656;DHT22;7928;43.614;1.456;2023-04-02T16:38:36;17.80;99.90
15656;DHT22;7928;43.614;1.456;2023-04-02T16:41:12;17.50;99.90
15656;DHT22;7928;43.614;1.456;2023-04-02T16:43:48;17.60;99.90
15656;DHT22;7928;43.614;1.456;2023-04-02T16:46:23;18.20;99.90
15656;DHT22;7928;43.614;1.456;2023-04-02T16:48:57;17.60;99.90
15656;DHT22;7928;43.614;1.456;2023-04-02T16:51:31;17.20;99.90
15656;DHT22;7928;43.614;1.456;2023-04-02T16:54:07;16.70;99.90